sensor_id;sensor_type;location;lat;lon;timestamp;pressure;altitude;pressure_sealevel;temperature;humidity
16461;BME280;8341;42.048;24.650;2023-02-19T00:01:39;97377.13;;;13.38;43.40
16461;BME280;8341;42.048;24.650;2023-02-19T00:04:10;97382.59;;;13.38;43.00
16461;BME280;8341;42.048;24.650;2023-02-19T00:06:37;97393.06;;;13.39;42.64
16461;BME280;8341;42.048;24.650;2023-02-19T00:09:04;97384.53;;;13.32;42.45
16461;BME280;8341;42.048;24.650;2023-02-19T00:11:33;97382.56;;;13.32;42.93
16461;BME280;8341;42.048;24.650;2023-02-19T00:14:01;97368.38;;;13.34;42.81
16461;BME280;8341;42.048;24.650;2023-02-19T00:16:31;97358.84;;;13.24;42.93
16461;BME280;8341;42.048;24.650;2023-02-19T00:19:00;97364.06;;;13.22;43.24
16461;BME280;8341;42.048;24.650;2023-02-19T00:21:27;97350.88;;;13.26;43.04
16461;BME280;8341;42.048;24.650;2023-02-19T00:23:56;97358.63;;;13.27;42.87
16461;BME280;8341;42.048;24.650;2023-02-19T00:26:24;97354.59;;;13.23;42.86
16461;BME280;8341;42.048;24.650;2023-02-19T00:28:53;97347.13;;;13.23;43.02
16461;BME280;8341;42.048;24.650;2023-02-19T00:31:22;97343.59;;;13.17;43.92
16461;BME280;8341;42.048;24.650;2023-02-19T00:33:51;97334.91;;;13.18;43.51
16461;BME280;8341;42.048;24.650;2023-02-19T00:36:18;97336.88;;;13.18;43.81
16461;BME280;8341;42.048;24.650;2023-02-19T00:38:45;97336.66;;;13.22;43.33
16461;BME280;8341;42.048;24.650;2023-02-19T00:41:14;97335.34;;;13.11;43.09
16461;BME280;8341;42.048;24.650;2023-02-19T00:43:48;97325.09;;;13.06;43.15
16461;BME280;8341;42.048;24.650;2023-02-19T00:46:18;97328.16;;;12.88;43.21
16461;BME280;8341;42.048;24.650;2023-02-19T00:48:45;97319.91;;;12.83;43.39
16461;BME280;8341;42.048;24.650;2023-02-19T00:51:12;97327.91;;;12.86;43.79
16461;BME280;8341;42.048;24.650;2023-02-19T00:53:39;97325.88;;;12.81;43.70
16461;BME280;8341;42.048;24.650;2023-02-19T00:56:07;97322.47;;;12.66;43.61
16461;BME280;8341;42.048;24.650;2023-02-19T00:58:34;97304.56;;;12.65;43.27
16461;BME280;8341;42.048;24.650;2023-02-19T01:01:02;97309.47;;;12.87;43.50
16461;BME280;8341;42.048;24.650;2023-02-19T01:03:31;97302.78;;;12.88;43.58
16461;BME280;8341;42.048;24.650;2023-02-19T01:05:58;97301.25;;;12.81;43.86
16461;BME280;8341;42.048;24.650;2023-02-19T01:08:25;97305.97;;;12.81;43.43
16461;BME280;8341;42.048;24.650;2023-02-19T01:10:52;97314.88;;;12.76;43.65
16461;BME280;8341;42.048;24.650;2023-02-19T01:13:19;97318.06;;;12.74;43.68
16461;BME280;8341;42.048;24.650;2023-02-19T01:15:46;97309.28;;;12.65;43.85
16461;BME280;8341;42.048;24.650;2023-02-19T01:18:13;97301.47;;;12.52;43.94
16461;BME280;8341;42.048;24.650;2023-02-19T01:20:42;97316.66;;;12.53;44.28
16461;BME280;8341;42.048;24.650;2023-02-19T01:23:10;97309.19;;;12.53;44.48
16461;BME280;8341;42.048;24.650;2023-02-19T01:25:37;97308.44;;;12.53;44.17
16461;BME280;8341;42.048;24.650;2023-02-19T01:28:04;97303.38;;;12.46;44.26
16461;BME280;8341;42.048;24.650;2023-02-19T01:30:33;97310.63;;;12.49;44.24
16461;BME280;8341;42.048;24.650;2023-02-19T01:32:59;97312.56;;;12.43;44.59
16461;BME280;8341;42.048;24.650;2023-02-19T01:35:26;97326.38;;;12.34;44.46
16461;BME280;8341;42.048;24.650;2023-02-19T01:37:54;97329.13;;;12.34;45.09
16461;BME280;8341;42.048;24.650;2023-02-19T01:40:21;97317.16;;;12.31;44.76
16461;BME280;8341;42.048;24.650;2023-02-19T01:42:48;97331.34;;;12.30;44.43
16461;BME280;8341;42.048;24.650;2023-02-19T01:45:20;97324.16;;;12.32;44.41
16461;BME280;8341;42.048;24.650;2023-02-19T01:47:52;97332.34;;;12.32;44.85
16461;BME280;8341;42.048;24.650;2023-02-19T01:50:21;97330.78;;;12.26;44.58
16461;BME280;8341;42.048;24.650;2023-02-19T01:52:48;97332.75;;;12.25;44.65
16461;BME280;8341;42.048;24.650;2023-02-19T01:55:16;97322.00;;;11.96;45.54
16461;BME280;8341;42.048;24.650;2023-02-19T01:57:46;97322.88;;;11.87;45.93
16461;BME280;8341;42.048;24.650;2023-02-19T02:00:16;97325.25;;;11.80;46.14
16461;BME280;8341;42.048;24.650;2023-02-19T02:02:47;97318.09;;;11.82;45.97
16461;BME280;8341;42.048;24.650;2023-02-19T02:05:24;97306.28;;;11.71;46.62
16461;BME280;8341;42.048;24.650;2023-02-19T02:07:53;97292.47;;;11.80;46.28
16461;BME280;8341;42.048;24.650;2023-02-19T02:10:40;97294.53;;;11.85;45.67
16461;BME280;8341;42.048;24.650;2023-02-19T02:13:07;97297.47;;;12.02;45.35
16461;BME280;8341;42.048;24.650;2023-02-19T02:15:40;97307.03;;;12.12;45.33
16461;BME280;8341;42.048;24.650;2023-02-19T02:18:16;97302.28;;;12.12;45.06
16461;BME280;8341;42.048;24.650;2023-02-19T02:24:09;97301.56;;;12.12;45.54
16461;BME280;8341;42.048;24.650;2023-02-19T02:30:04;97311.84;;;12.22;44.93
16461;BME280;8341;42.048;24.650;2023-02-19T02:32:38;97311.09;;;12.22;44.61
16461;BME280;8341;42.048;24.650;2023-02-19T02:35:19;97317.03;;;12.20;44.34
16461;BME280;8341;42.048;24.650;2023-02-19T02:37:48;97315.63;;;12.25;44.42
16461;BME280;8341;42.048;24.650;2023-02-19T02:40:17;97324.09;;;12.27;44.27
16461;BME280;8341;42.048;24.650;2023-02-19T02:42:47;97330.31;;;12.27;43.78
16461;BME280;8341;42.048;24.650;2023-02-19T02:45:29;97340.50;;;12.27;43.79
16461;BME280;8341;42.048;24.650;2023-02-19T02:48:09;97344.88;;;12.19;43.84
16461;BME280;8341;42.048;24.650;2023-02-19T13:02:32;97170.44;;;21.04;26.65
16461;BME280;8341;42.048;24.650;2023-02-19T13:05:05;97165.31;;;21.08;27.64
16461;BME280;8341;42.048;24.650;2023-02-19T13:07:39;97155.91;;;21.11;26.65
16461;BME280;8341;42.048;24.650;2023-02-19T13:10:25;97162.78;;;20.69;27.41
16461;BME280;8341;42.048;24.650;2023-02-19T13:12:53;97160.25;;;20.78;27.28
16461;BME280;8341;42.048;24.650;2023-02-19T13:15:28;97143.28;;;20.82;27.66
16461;BME280;8341;42.048;24.650;2023-02-19T13:17:59;97142.22;;;20.85;27.66
16461;BME280;8341;42.048;24.650;2023-02-19T13:20:30;97143.09;;;20.80;26.64
16461;BME280;8341;42.048;24.650;2023-02-19T13:23:00;97144.38;;;20.79;27.25
16461;BME280;8341;42.048;24.650;2023-02-19T13:26:00;97130.91;;;20.83;27.58
16461;BME280;8341;42.048;24.650;2023-02-19T13:28:44;97129.56;;;20.76;27.05
16461;BME280;8341;42.048;24.650;2023-02-19T13:31:29;97125.25;;;20.68;27.04
16461;BME280;8341;42.048;24.650;2023-02-19T13:34:11;97122.91;;;20.72;27.50
16461;BME280;8341;42.048;24.650;2023-02-19T13:36:39;97124.72;;;20.69;27.29
16461;BME280;8341;42.048;24.650;2023-02-19T13:39:11;97115.47;;;20.67;27.34
16461;BME280;8341;42.048;24.650;2023-02-19T13:41:40;97113.22;;;20.65;27.47
16461;BME280;8341;42.048;24.650;2023-02-19T13:44:16;97115.28;;;20.65;27.59
16461;BME280;8341;42.048;24.650;2023-02-19T13:46:45;97106.81;;;20.49;27.30
16461;BME280;8341;42.048;24.650;2023-02-19T13:52:39;97090.13;;;20.63;27.59
16461;BME280;8341;42.048;24.650;2023-02-19T13:55:44;97090.72;;;20.69;27.93
16461;BME280;8341;42.048;24.650;2023-02-19T14:04:47;97082.03;;;20.65;27.36
16461;BME280;8341;42.048;24.650;2023-02-19T14:10:13;97064.50;;;20.70;28.32
16461;BME280;8341;42.048;24.650;2023-02-19T14:12:40;97077.13;;;20.78;27.98
16461;BME280;8341;42.048;24.650;2023-02-19T14:15:39;97074.19;;;20.55;27.65
16461;BME280;8341;42.048;24.650;2023-02-19T14:18:43;97067.16;;;20.54;28.29
16461;BME280;8341;42.048;24.650;2023-02-19T14:21:22;97067.94;;;20.34;28.21
16461;BME280;8341;42.048;24.650;2023-02-19T14:23:51;97057.31;;;20.46;28.43
16461;BME280;8341;42.048;24.650;2023-02-19T14:26:20;97057.84;;;20.44;28.06
16461;BME280;8341;42.048;24.650;2023-02-19T14:28:48;97055.69;;;20.50;28.69
16461;BME280;8341;42.048;24.650;2023-02-19T14:34:04;97043.81;;;20.42;28.65
16461;BME280;8341;42.048;24.650;2023-02-19T14:36:42;97039.69;;;20.15;28.56
16461;BME280;8341;42.048;24.650;2023-02-19T14:39:16;97043.06;;;20.21;28.75
16461;BME280;8341;42.048;24.650;2023-02-19T14:41:45;97045.63;;;20.19;28.31
16461;BME280;8341;42.048;24.650;2023-02-19T14:44:17;97045.38;;;20.10;28.80
16461;BME280;8341;42.048;24.650;2023-02-19T14:46:50;97033.34;;;20.07;28.54
16461;BME280;8341;42.048;24.650;2023-02-19T14:49:24;97035.78;;;20.31;29.30
16461;BME280;8341;42.048;24.650;2023-02-19T14:51:56;97033.38;;;20.28;28.87
16461;BME280;8341;42.048;24.650;2023-02-19T14:54:34;97020.25;;;20.28;29.03
16461;BME280;8341;42.048;24.650;2023-02-19T14:57:06;97017.75;;;20.17;28.59
16461;BME280;8341;42.048;24.650;2023-02-19T14:59:36;97009.78;;;20.14;28.80
16461;BME280;8341;42.048;24.650;2023-02-19T15:02:14;97015.25;;;20.06;28.94
16461;BME280;8341;42.048;24.650;2023-02-19T15:04:41;97011.53;;;20.04;28.72
16461;BME280;8341;42.048;24.650;2023-02-19T15:07:15;97013.41;;;20.09;29.47
16461;BME280;8341;42.048;24.650;2023-02-19T15:09:45;97008.56;;;20.02;29.45
16461;BME280;8341;42.048;24.650;2023-02-19T15:12:16;97016.00;;;20.07;29.50
16461;BME280;8341;42.048;24.650;2023-02-19T15:14:45;97015.94;;;19.99;30.34
16461;BME280;8341;42.048;24.650;2023-02-19T15:17:16;97013.03;;;19.84;31.06
16461;BME280;8341;42.048;24.650;2023-02-19T15:19:46;97015.03;;;19.63;31.34
16461;BME280;8341;42.048;24.650;2023-02-19T15:22:18;97008.78;;;19.49;31.83
16461;BME280;8341;42.048;24.650;2023-02-19T15:24:46;97016.19;;;19.33;32.05
16461;BME280;8341;42.048;24.650;2023-02-19T15:27:16;96999.00;;;19.14;32.13
16461;BME280;8341;42.048;24.650;2023-02-19T15:29:46;97004.34;;;18.99;31.99
16461;BME280;8341;42.048;24.650;2023-02-19T15:32:16;97013.81;;;18.77;32.00
16461;BME280;8341;42.048;24.650;2023-02-19T15:34:52;97012.75;;;18.54;32.32
16461;BME280;8341;42.048;24.650;2023-02-19T15:37:21;97011.34;;;18.35;33.17
16461;BME280;8341;42.048;24.650;2023-02-19T15:39:50;97018.84;;;18.21;32.66
16461;BME280;8341;42.048;24.650;2023-02-19T15:42:22;97017.75;;;17.98;32.75
16461;BME280;8341;42.048;24.650;2023-02-19T15:44:52;97020.16;;;17.88;33.19
16461;BME280;8341;42.048;24.650;2023-02-19T15:47:24;97015.88;;;17.74;33.75
16461;BME280;8341;42.048;24.650;2023-02-19T15:49:55;97022.25;;;17.69;33.73
16461;BME280;8341;42.048;24.650;2023-02-19T15:52:32;97017.09;;;17.60;33.89
16461;BME280;8341;42.048;24.650;2023-02-19T15:55:11;97011.44;;;17.52;34.62
16461;BME280;8341;42.048;24.650;2023-02-19T15:57:47;97014.84;;;17.40;34.54
16461;BME280;8341;42.048;24.650;2023-02-19T16:00:18;97013.53;;;17.28;34.28
16461;BME280;8341;42.048;24.650;2023-02-19T16:02:46;97018.16;;;17.20;34.25
16461;BME280;8341;42.048;24.650;2023-02-19T16:05:21;97014.72;;;17.14;34.31
16461;BME280;8341;42.048;24.650;2023-02-19T16:08:07;97024.41;;;17.02;34.74
16461;BME280;8341;42.048;24.650;2023-02-19T16:10:34;97029.06;;;16.88;35.03
16461;BME280;8341;42.048;24.650;2023-02-19T16:13:02;97025.13;;;16.83;34.56
16461;BME280;8341;42.048;24.650;2023-02-19T16:15:30;97021.91;;;16.79;35.36
16461;BME280;8341;42.048;24.650;2023-02-19T16:17:58;97027.50;;;16.74;35.42
16461;BME280;8341;42.048;24.650;2023-02-19T16:20:28;97028.06;;;16.67;35.44
16461;BME280;8341;42.048;24.650;2023-02-19T16:22:57;97028.91;;;16.56;35.98
16461;BME280;8341;42.048;24.650;2023-02-19T16:25:29;97029.03;;;16.45;35.90
16461;BME280;8341;42.048;24.650;2023-02-19T16:27:58;97027.53;;;16.44;35.82
16461;BME280;8341;42.048;24.650;2023-02-19T16:30:35;97014.34;;;16.37;36.65
16461;BME280;8341;42.048;24.650;2023-02-19T16:33:26;97021.22;;;16.25;36.57
16461;BME280;8341;42.048;24.650;2023-02-19T16:35:57;97029.00;;;16.21;36.39
16461;BME280;8341;42.048;24.650;2023-02-19T16:38:24;97031.97;;;16.23;36.95
16461;BME280;8341;42.048;24.650;2023-02-19T16:41:10;97023.31;;;16.13;36.45
16461;BME280;8341;42.048;24.650;2023-02-19T16:43:39;97018.34;;;16.12;36.62
16461;BME280;8341;42.048;24.650;2023-02-19T16:46:08;97017.63;;;16.06;37.01
16461;BME280;8341;42.048;24.650;2023-02-19T16:48:36;97023.13;;;16.06;36.74
16461;BME280;8341;42.048;24.650;2023-02-19T16:51:05;97031.16;;;16.04;37.21
16461;BME280;8341;42.048;24.650;2023-02-19T16:53:33;97029.44;;;16.01;36.81
16461;BME280;8341;42.048;24.650;2023-02-19T16:55:59;97031.44;;;16.00;36.89
16461;BME280;8341;42.048;24.650;2023-02-19T16:58:28;97038.66;;;16.03;36.73
16461;BME280;8341;42.048;24.650;2023-02-19T17:00:54;97039.41;;;16.04;36.32
16461;BME280;8341;42.048;24.650;2023-02-19T17:03:23;97035.94;;;15.98;37.08
16461;BME280;8341;42.048;24.650;2023-02-19T17:05:50;97038.47;;;15.96;37.10
16461;BME280;8341;42.048;24.650;2023-02-19T17:08:27;97045.47;;;15.97;36.36
16461;BME280;8341;42.048;24.650;2023-02-19T17:10:55;97043.75;;;15.94;35.95
16461;BME280;8341;42.048;24.650;2023-02-19T17:13:22;97048.31;;;15.86;36.66
16461;BME280;8341;42.048;24.650;2023-02-19T17:15:50;97052.56;;;15.87;36.80
16461;BME280;8341;42.048;24.650;2023-02-19T17:18:18;97064.28;;;15.87;36.57
16461;BME280;8341;42.048;24.650;2023-02-19T17:20:49;97057.38;;;15.75;37.15
16461;BME280;8341;42.048;24.650;2023-02-19T17:23:16;97066.34;;;15.81;36.62
16461;BME280;8341;42.048;24.650;2023-02-19T17:25:43;97067.41;;;15.73;37.22
16461;BME280;8341;42.048;24.650;2023-02-19T17:28:09;97072.91;;;15.73;36.58
16461;BME280;8341;42.048;24.650;2023-02-19T17:30:36;97065.91;;;15.72;36.94
16461;BME280;8341;42.048;24.650;2023-02-19T17:33:04;97060.72;;;15.62;37.00
16461;BME280;8341;42.048;24.650;2023-02-19T17:35:31;97055.44;;;15.64;37.32
16461;BME280;8341;42.048;24.650;2023-02-19T17:37:58;97055.47;;;15.59;37.12
16461;BME280;8341;42.048;24.650;2023-02-19T17:40:28;97056.56;;;15.50;37.05
16461;BME280;8341;42.048;24.650;2023-02-19T17:42:55;97059.31;;;15.50;37.92
16461;BME280;8341;42.048;24.650;2023-02-19T17:45:22;97053.59;;;15.37;37.43
16461;BME280;8341;42.048;24.650;2023-02-19T17:47:49;97059.34;;;15.39;37.47
16461;BME280;8341;42.048;24.650;2023-02-19T17:50:19;97051.41;;;15.30;38.23
16461;BME280;8341;42.048;24.650;2023-02-19T17:52:46;97067.34;;;15.37;37.83
16461;BME280;8341;42.048;24.650;2023-02-19T17:55:14;97065.84;;;15.36;37.53
16461;BME280;8341;42.048;24.650;2023-02-19T17:57:42;97070.56;;;15.41;38.21
16461;BME280;8341;42.048;24.650;2023-02-19T18:00:11;97071.81;;;15.40;37.53
16461;BME280;8341;42.048;24.650;2023-02-19T18:02:38;97069.31;;;15.42;37.74
16461;BME280;8341;42.048;24.650;2023-02-19T18:05:06;97068.34;;;15.45;37.25
16461;BME280;8341;42.048;24.650;2023-02-19T18:07:34;97068.03;;;15.49;37.21
16461;BME280;8341;42.048;24.650;2023-02-19T18:10:01;97076.25;;;15.54;36.71
16461;BME280;8341;42.048;24.650;2023-02-19T18:12:28;97071.78;;;15.51;37.25
16461;BME280;8341;42.048;24.650;2023-02-19T18:14:54;97076.03;;;15.52;36.94
16461;BME280;8341;42.048;24.650;2023-02-19T18:17:21;97076.53;;;15.51;36.80
16461;BME280;8341;42.048;24.650;2023-02-19T18:19:48;97067.31;;;15.48;36.83
16461;BME280;8341;42.048;24.650;2023-02-19T18:22:15;97069.03;;;15.51;36.78
16461;BME280;8341;42.048;24.650;2023-02-19T18:24:46;97076.03;;;15.52;36.60
16461;BME280;8341;42.048;24.650;2023-02-19T18:27:13;97071.00;;;15.56;37.33
16461;BME280;8341;42.048;24.650;2023-02-19T18:29:41;97058.81;;;15.46;37.13
16461;BME280;8341;42.048;24.650;2023-02-19T18:32:07;97076.53;;;15.51;37.26
16461;BME280;8341;42.048;24.650;2023-02-19T18:34:34;97079.53;;;15.53;37.00
16461;BME280;8341;42.048;24.650;2023-02-19T18:37:02;97075.56;;;15.43;36.95
16461;BME280;8341;42.048;24.650;2023-02-19T18:39:29;97080.03;;;15.46;37.63
16461;BME280;8341;42.048;24.650;2023-02-19T18:41:57;97077.56;;;15.42;37.67
16461;BME280;8341;42.048;24.650;2023-02-19T18:44:25;97066.34;;;15.40;37.27
16461;BME280;8341;42.048;24.650;2023-02-19T18:46:51;97079.84;;;15.33;37.04
16461;BME280;8341;42.048;24.650;2023-02-19T18:49:18;97078.34;;;15.37;37.41
16461;BME280;8341;42.048;24.650;2023-02-19T18:51:45;97081.06;;;15.43;37.64
16461;BME280;8341;42.048;24.650;2023-02-19T18:54:12;97082.56;;;15.38;37.50
16461;BME280;8341;42.048;24.650;2023-02-19T18:56:40;97077.78;;;15.44;37.14
16461;BME280;8341;42.048;24.650;2023-02-19T18:59:09;97084.28;;;15.41;37.04
16461;BME280;8341;42.048;24.650;2023-02-19T19:01:36;97082.06;;;15.40;37.00
16461;BME280;8341;42.048;24.650;2023-02-19T19:04:03;97084.03;;;15.45;36.41
16461;BME280;8341;42.048;24.650;2023-02-19T19:06:30;97089.81;;;15.36;37.17
16461;BME280;8341;42.048;24.650;2023-02-19T19:08:57;97089.03;;;15.41;36.35
16461;BME280;8341;42.048;24.650;2023-02-19T19:11:24;97089.03;;;15.46;37.18
16461;BME280;8341;42.048;24.650;2023-02-19T19:13:51;97097.28;;;15.46;37.21
16461;BME280;8341;42.048;24.650;2023-02-19T19:16:21;97112.75;;;15.44;36.86
16461;BME280;8341;42.048;24.650;2023-02-19T19:18:48;97111.84;;;15.30;37.08
16461;BME280;8341;42.048;24.650;2023-02-19T19:21:15;97119.31;;;15.35;36.94
16461;BME280;8341;42.048;24.650;2023-02-19T19:23:42;97122.84;;;15.30;37.82
16461;BME280;8341;42.048;24.650;2023-02-19T19:26:09;97135.84;;;15.24;37.80
16461;BME280;8341;42.048;24.650;2023-02-19T19:28:37;97139.13;;;15.17;38.11
16461;BME280;8341;42.048;24.650;2023-02-19T19:31:09;97149.34;;;15.22;37.97
16461;BME280;8341;42.048;24.650;2023-02-19T19:33:37;97157.38;;;15.03;39.23
16461;BME280;8341;42.048;24.650;2023-02-19T19:36:04;97163.63;;;14.93;39.53
16461;BME280;8341;42.048;24.650;2023-02-19T19:38:31;97160.38;;;15.00;39.16
16461;BME280;8341;42.048;24.650;2023-02-19T19:40:58;97165.63;;;14.87;39.87
16461;BME280;8341;42.048;24.650;2023-02-19T19:43:25;97172.88;;;14.90;38.93
16461;BME280;8341;42.048;24.650;2023-02-19T19:45:52;97175.38;;;14.88;39.52
16461;BME280;8341;42.048;24.650;2023-02-19T19:48:19;97178.88;;;14.83;39.61
16461;BME280;8341;42.048;24.650;2023-02-19T19:50:47;97177.13;;;14.85;39.39
16461;BME280;8341;42.048;24.650;2023-02-19T19:53:14;97190.34;;;14.87;39.18
16461;BME280;8341;42.048;24.650;2023-02-19T19:55:41;97177.66;;;14.84;39.64
16461;BME280;8341;42.048;24.650;2023-02-19T19:58:08;97188.34;;;14.82;39.58
16461;BME280;8341;42.048;24.650;2023-02-19T20:00:34;97202.84;;;14.77;39.67
16461;BME280;8341;42.048;24.650;2023-02-19T20:03:01;97197.63;;;14.79;39.92
16461;BME280;8341;42.048;24.650;2023-02-19T20:05:28;97203.06;;;14.90;39.51
16461;BME280;8341;42.048;24.650;2023-02-19T20:07:56;97189.88;;;14.72;39.49
16461;BME280;8341;42.048;24.650;2023-02-19T20:10:23;97215.31;;;14.89;39.66
16461;BME280;8341;42.048;24.650;2023-02-19T20:12:50;97209.31;;;14.85;39.31
16461;BME280;8341;42.048;24.650;2023-02-19T20:15:19;97207.81;;;14.95;38.86
16461;BME280;8341;42.048;24.650;2023-02-19T20:17:46;97211.06;;;15.04;39.57
16461;BME280;8341;42.048;24.650;2023-02-19T20:20:15;97214.53;;;15.05;38.70
16461;BME280;8341;42.048;24.650;2023-02-19T20:22:42;97207.03;;;15.05;38.81
16461;BME280;8341;42.048;24.650;2023-02-19T20:25:10;97223.75;;;15.13;38.86
16461;BME280;8341;42.048;24.650;2023-02-19T20:27:37;97219.78;;;15.09;38.80
16461;BME280;8341;42.048;24.650;2023-02-19T20:30:05;97223.53;;;15.05;38.92
16461;BME280;8341;42.048;24.650;2023-02-19T20:32:32;97229.00;;;15.05;38.68
16461;BME280;8341;42.048;24.650;2023-02-19T20:34:59;97224.28;;;15.00;39.29
16461;BME280;8341;42.048;24.650;2023-02-19T20:37:26;97231.00;;;15.05;38.60
16461;BME280;8341;42.048;24.650;2023-02-19T20:39:52;97233.28;;;15.01;38.85
16461;BME280;8341;42.048;24.650;2023-02-19T20:42:21;97243.75;;;15.02;38.28
16461;BME280;8341;42.048;24.650;2023-02-19T20:44:47;97242.75;;;15.00;38.93
16461;BME280;8341;42.048;24.650;2023-02-19T20:47:14;97244.25;;;14.95;38.62
16461;BME280;8341;42.048;24.650;2023-02-19T20:49:43;97249.28;;;14.97;38.84
16461;BME280;8341;42.048;24.650;2023-02-19T20:52:12;97250.75;;;14.87;39.08
16461;BME280;8341;42.048;24.650;2023-02-19T20:54:39;97254.75;;;14.91;38.87
16461;BME280;8341;42.048;24.650;2023-02-19T20:57:07;97264.75;;;14.89;39.64
16461;BME280;8341;42.048;24.650;2023-02-19T20:59:36;97267.97;;;14.87;39.14
16461;BME280;8341;42.048;24.650;2023-02-19T21:02:06;97261.50;;;14.90;38.90
16461;BME280;8341;42.048;24.650;2023-02-19T21:04:36;97256.25;;;14.98;38.66
16461;BME280;8341;42.048;24.650;2023-02-19T21:07:03;97265.00;;;15.02;39.09
16461;BME280;8341;42.048;24.650;2023-02-19T21:09:30;97264.47;;;15.03;38.81
16461;BME280;8341;42.048;24.650;2023-02-19T21:11:56;97260.97;;;14.97;39.09
16461;BME280;8341;42.048;24.650;2023-02-19T21:14:24;97259.50;;;15.02;38.80
16461;BME280;8341;42.048;24.650;2023-02-19T21:16:52;97255.25;;;14.90;39.63
16461;BME280;8341;42.048;24.650;2023-02-19T21:19:19;97276.22;;;14.93;39.58
16461;BME280;8341;42.048;24.650;2023-02-19T21:21:47;97272.00;;;14.86;39.56
16461;BME280;8341;42.048;24.650;2023-02-19T21:24:14;97280.19;;;14.92;39.78
16461;BME280;8341;42.048;24.650;2023-02-19T21:26:42;97278.72;;;14.85;39.67
16461;BME280;8341;42.048;24.650;2023-02-19T21:29:13;97280.47;;;14.83;39.83
16461;BME280;8341;42.048;24.650;2023-02-19T21:31:42;97290.44;;;14.86;39.84
16461;BME280;8341;42.048;24.650;2023-02-19T21:34:12;97285.44;;;14.84;39.70
16461;BME280;8341;42.048;24.650;2023-02-19T21:36:39;97286.72;;;14.89;39.38
16461;BME280;8341;42.048;24.650;2023-02-19T21:39:07;97303.41;;;14.85;40.51
16461;BME280;8341;42.048;24.650;2023-02-19T21:41:35;97289.94;;;14.82;40.28
16461;BME280;8341;42.048;24.650;2023-02-19T21:44:02;97298.44;;;14.78;40.17
16461;BME280;8341;42.048;24.650;2023-02-19T21:46:29;97303.41;;;14.74;40.07
16461;BME280;8341;42.048;24.650;2023-02-19T21:48:57;97309.91;;;14.71;40.01
16461;BME280;8341;42.048;24.650;2023-02-19T21:51:30;97310.66;;;14.72;40.52
16461;BME280;8341;42.048;24.650;2023-02-19T21:53:57;97300.41;;;14.67;40.74
16461;BME280;8341;42.048;24.650;2023-02-19T21:56:26;97319.41;;;14.76;40.63
16461;BME280;8341;42.048;24.650;2023-02-19T21:58:53;97303.94;;;14.78;40.31
16461;BME280;8341;42.048;24.650;2023-02-19T22:01:20;97311.91;;;14.76;40.66
16461;BME280;8341;42.048;24.650;2023-02-19T22:03:47;97316.91;;;14.78;40.65
16461;BME280;8341;42.048;24.650;2023-02-19T22:06:14;97323.16;;;14.78;40.39
16461;BME280;8341;42.048;24.650;2023-02-19T22:08:43;97315.16;;;14.80;40.65
16461;BME280;8341;42.048;24.650;2023-02-19T22:11:10;97316.41;;;14.85;40.50
16461;BME280;8341;42.048;24.650;2023-02-19T22:13:37;97324.63;;;14.85;40.90
16461;BME280;8341;42.048;24.650;2023-02-19T22:16:05;97331.13;;;14.82;40.69
16461;BME280;8341;42.048;24.650;2023-02-19T22:18:32;97334.59;;;14.77;41.13
16461;BME280;8341;42.048;24.650;2023-02-19T22:20:59;97330.88;;;14.80;41.22
16461;BME280;8341;42.048;24.650;2023-02-19T22:23:27;97339.88;;;14.86;40.72
16461;BME280;8341;42.048;24.650;2023-02-19T22:25:55;97330.38;;;14.81;40.97
16461;BME280;8341;42.048;24.650;2023-02-19T22:28:22;97337.13;;;14.86;41.22
16461;BME280;8341;42.048;24.650;2023-02-19T22:30:49;97338.34;;;14.85;41.25
16461;BME280;8341;42.048;24.650;2023-02-19T22:33:15;97347.13;;;14.89;40.97
16461;BME280;8341;42.048;24.650;2023-02-19T22:35:42;97340.13;;;14.88;40.64
16461;BME280;8341;42.048;24.650;2023-02-19T22:38:09;97342.88;;;14.99;41.03
16461;BME280;8341;42.048;24.650;2023-02-19T22:40:36;97355.63;;;15.02;40.72
16461;BME280;8341;42.048;24.650;2023-02-19T22:43:04;97363.81;;;14.85;41.38
16461;BME280;8341;42.048;24.650;2023-02-19T22:45:31;97357.56;;;14.85;41.00
16461;BME280;8341;42.048;24.650;2023-02-19T22:47:58;97363.59;;;14.83;41.35
16461;BME280;8341;42.048;24.650;2023-02-19T22:50:24;97370.06;;;14.86;41.16
16461;BME280;8341;42.048;24.650;2023-02-19T22:52:51;97371.06;;;14.88;41.29
16461;BME280;8341;42.048;24.650;2023-02-19T22:55:19;97372.31;;;14.87;41.57
16461;BME280;8341;42.048;24.650;2023-02-19T22:57:46;97371.81;;;14.89;41.30
16461;BME280;8341;42.048;24.650;2023-02-19T23:00:17;97367.81;;;14.79;41.26
16461;BME280;8341;42.048;24.650;2023-02-19T23:02:45;97367.53;;;14.77;41.60
16461;BME280;8341;42.048;24.650;2023-02-19T23:05:13;97372.06;;;14.80;41.74
16461;BME280;8341;42.048;24.650;2023-02-19T23:07:41;97359.06;;;14.75;41.80
16461;BME280;8341;42.048;24.650;2023-02-19T23:10:09;97364.06;;;14.71;42.05
16461;BME280;8341;42.048;24.650;2023-02-19T23:12:36;97366.28;;;14.67;42.31
16461;BME280;8341;42.048;24.650;2023-02-19T23:15:04;97364.81;;;14.77;41.95
16461;BME280;8341;42.048;24.650;2023-02-19T23:17:33;97366.28;;;14.72;42.39
16461;BME280;8341;42.048;24.650;2023-02-19T23:20:00;97363.53;;;14.67;42.59
16461;BME280;8341;42.048;24.650;2023-02-19T23:22:27;97368.03;;;14.70;42.09
16461;BME280;8341;42.048;24.650;2023-02-19T23:24:54;97365.53;;;14.61;42.32
16461;BME280;8341;42.048;24.650;2023-02-19T23:27:21;97367.50;;;14.55;42.38
16461;BME280;8341;42.048;24.650;2023-02-19T23:29:48;97372.97;;;14.49;42.73
16461;BME280;8341;42.048;24.650;2023-02-19T23:32:15;97373.22;;;14.46;42.87
16461;BME280;8341;42.048;24.650;2023-02-19T23:34:47;97377.47;;;14.47;42.81
16461;BME280;8341;42.048;24.650;2023-02-19T23:37:13;97368.22;;;14.44;42.78
16461;BME280;8341;42.048;24.650;2023-02-19T23:39:40;97375.19;;;14.34;43.30
16461;BME280;8341;42.048;24.650;2023-02-19T23:42:13;97370.44;;;14.34;43.33
16461;BME280;8341;42.048;24.650;2023-02-19T23:44:40;97368.41;;;14.29;43.54
16461;BME280;8341;42.048;24.650;2023-02-19T23:47:06;97371.44;;;14.31;43.62